createdAt,value
2018-11-20T00:01:38.096Z,73.19
2018-11-20T00:04:30.864Z,73.04
2018-11-20T00:07:31.746Z,72.85
2018-11-20T00:10:29.378Z,72.65
2018-11-20T00:13:26.362Z,72.55
2018-11-20T00:16:15.580Z,72.55
2018-11-20T00:19:12.568Z,72.50
2018-11-20T00:22:17.284Z,72.28
2018-11-20T00:25:10.929Z,72.13
2018-11-20T00:27:59.477Z,71.98
2018-11-20T00:30:36.014Z,71.87
2018-11-20T00:33:31.647Z,71.74
2018-11-20T00:36:24.944Z,71.53
2018-11-20T00:39:37.838Z,71.32
2018-11-20T00:42:21.990Z,71.12
2018-11-20T00:45:25.583Z,70.91
2018-11-20T00:48:22.611Z,70.61
2018-11-20T00:51:15.807Z,70.45
2018-11-20T00:54:34.569Z,70.22
2018-11-20T00:57:37.581Z,70.04
2018-11-20T01:00:30.242Z,70.01
2018-11-20T01:03:18.818Z,69.84
2018-11-20T01:06:34.121Z,69.76
2018-11-20T01:12:59.972Z,69.62
2018-11-20T01:15:52.383Z,69.58
2018-11-20T01:18:47.111Z,69.49
2018-11-20T01:21:39.777Z,69.26
2018-11-20T01:24:33.130Z,69.19
2018-11-20T01:27:41.955Z,69.15
2018-11-20T01:30:43.854Z,69.18
2018-11-20T01:33:33.419Z,69.17
2018-11-20T01:36:21.355Z,69.26
2018-11-20T01:39:19.125Z,69.37
2018-11-20T01:42:23.705Z,69.42
2018-11-20T01:45:05.549Z,69.51
2018-11-20T01:47:54.544Z,69.60
2018-11-20T01:50:50.253Z,69.65
2018-11-20T01:53:38.311Z,69.74
2018-11-20T01:56:26.596Z,69.75
2018-11-20T01:59:14.301Z,69.80
2018-11-20T02:02:18.913Z,69.82
2018-11-20T02:05:20.653Z,69.81
2018-11-20T02:08:28.387Z,69.83
2018-11-20T02:11:21.255Z,69.87
2018-11-20T02:14:44.997Z,69.90
2018-11-20T02:18:08.838Z,69.90
2018-11-20T02:20:51.969Z,69.95
2018-11-20T02:23:41.506Z,70.04
2018-11-20T02:26:28.977Z,70.03
2018-11-20T02:29:17.328Z,70.05
2018-11-20T02:32:05.409Z,70.12
2018-11-20T02:35:13.281Z,70.20
2018-11-20T02:38:21.223Z,70.31
2018-11-20T02:41:09.456Z,70.45
2018-11-20T02:43:59.248Z,70.53
2018-11-20T02:46:53.966Z,70.58
2018-11-20T02:49:36.981Z,70.56
2018-11-20T02:52:35.609Z,70.59
2018-11-20T02:55:24.155Z,70.64
2018-11-20T02:58:25.839Z,70.70
2018-11-20T03:01:18.311Z,70.75
2018-11-20T03:04:13.556Z,70.82
2018-11-20T03:06:59.557Z,70.85
2018-11-20T03:09:50.326Z,70.83
2018-11-20T03:12:38.616Z,70.84
2018-11-20T03:15:26.716Z,70.92
2018-11-20T03:18:31.293Z,70.95
2018-11-20T03:21:17.569Z,70.97
2018-11-20T03:23:57.831Z,71.03
2018-11-20T03:26:47.389Z,71.05
2018-11-20T03:30:07.213Z,71.04
2018-11-20T03:32:59.783Z,71.02
2018-11-20T03:35:56.511Z,71.03
2018-11-20T03:38:44.623Z,71.08
2018-11-20T03:41:25.387Z,71.13
2018-11-20T03:44:06.739Z,71.15
2018-11-20T03:47:02.367Z,71.18
2018-11-20T03:50:00.965Z,71.20
2018-11-20T03:52:59.371Z,71.26
2018-11-20T03:55:40.267Z,71.28
2018-11-20T03:58:33.385Z,71.31
2018-11-20T04:01:37.900Z,71.33
2018-11-20T04:04:39.405Z,71.39
2018-11-20T04:07:37.497Z,71.44
2018-11-20T04:10:27.206Z,71.49
2018-11-20T04:13:16.771Z,71.50
2018-11-20T04:15:59.298Z,71.49
2018-11-20T04:18:54.881Z,71.46
2018-11-20T04:21:44.441Z,71.49
2018-11-20T04:24:34.017Z,71.49
2018-11-20T04:27:33.869Z,71.50
2018-11-20T04:31:13.771Z,71.55
2018-11-20T04:34:03.510Z,71.68
2018-11-20T04:37:03.317Z,71.78
2018-11-20T04:39:41.966Z,71.83
2018-11-20T04:42:30.270Z,71.85
2018-11-20T04:45:18.619Z,71.85
2018-11-20T04:48:08.187Z,71.91
2018-11-20T04:51:09.891Z,71.97
2018-11-20T04:54:05.207Z,71.99
2018-11-20T04:57:57.992Z,71.66
2018-11-20T05:00:48.730Z,71.81
2018-11-20T05:03:43.500Z,71.95
2018-11-20T05:06:30.759Z,71.97
2018-11-20T05:09:17.706Z,72.03
2018-11-20T05:12:05.876Z,72.06
2018-11-20T05:15:12.923Z,72.11
2018-11-20T05:18:07.237Z,72.15
2018-11-20T05:20:54.413Z,72.21
2018-11-20T05:23:45.945Z,72.25
2018-11-20T05:26:43.631Z,72.26
2018-11-20T05:29:30.575Z,72.33
2018-11-20T05:32:17.445Z,72.32
2018-11-20T05:35:18.047Z,72.32
2018-11-20T05:37:55.547Z,72.27
2018-11-20T05:40:35.927Z,72.28
2018-11-20T05:43:23.947Z,72.29
2018-11-20T05:46:16.812Z,72.28
2018-11-20T05:49:11.111Z,72.36
2018-11-20T05:51:57.965Z,72.49
2018-11-20T05:54:40.416Z,72.60
2018-11-20T05:57:27.468Z,72.71
2018-11-20T06:00:15.809Z,72.72
2018-11-20T06:03:13.085Z,72.76
2018-11-20T06:06:01.483Z,72.76
2018-11-20T06:08:41.846Z,72.76
2018-11-20T06:11:31.114Z,72.75
2018-11-20T06:14:22.171Z,72.72
2018-11-20T06:17:08.965Z,72.62
2018-11-20T06:19:53.685Z,72.49
2018-11-20T06:22:50.961Z,72.35
2018-11-20T06:25:45.582Z,72.19
2018-11-20T06:28:33.135Z,70.91
2018-11-20T06:31:27.377Z,71.12
2018-11-20T06:34:13.056Z,71.27
2018-11-20T06:37:04.084Z,71.21
2018-11-20T06:40:00.584Z,71.18
2018-11-20T06:42:47.732Z,71.13
2018-11-20T06:45:48.401Z,71.11
2018-11-20T06:48:49.467Z,71.13
2018-11-20T06:51:25.268Z,71.11
2018-11-20T06:54:16.978Z,71.06
2018-11-20T06:57:23.400Z,71.01
2018-11-20T07:00:29.996Z,70.98
2018-11-20T07:03:27.009Z,71.08
2018-11-20T07:06:08.884Z,71.06
2018-11-20T07:08:56.216Z,71.00
2018-11-20T07:11:42.001Z,70.88
2018-11-20T07:14:33.226Z,70.81
2018-11-20T07:17:28.460Z,70.67
2018-11-20T07:20:17.966Z,70.56
2018-11-20T07:23:12.140Z,70.34
2018-11-20T07:25:49.365Z,70.09
2018-11-20T07:28:36.016Z,70.01
2018-11-20T07:31:23.553Z,69.86
2018-11-20T07:34:10.475Z,69.58
2018-11-20T07:36:57.608Z,69.22
2018-11-20T07:39:48.540Z,69.03
2018-11-20T07:42:26.617Z,68.78
2018-11-20T07:45:10.440Z,68.63
2018-11-20T07:48:01.943Z,68.48
2018-11-20T07:50:38.833Z,68.23
2018-11-20T07:53:25.995Z,68.14
2018-11-20T07:56:17.180Z,68.06
2018-11-20T07:59:07.656Z,68.02
2018-11-20T08:01:58.580Z,68.12
2018-11-20T08:04:52.744Z,67.99
2018-11-20T08:07:33.908Z,67.94
2018-11-20T08:10:10.127Z,67.86
2018-11-20T08:12:55.687Z,67.80
2018-11-20T08:15:34.600Z,67.73
2018-11-20T08:18:22.054Z,67.75
2018-11-20T08:21:10.447Z,67.78
2018-11-20T08:23:57.718Z,67.68
2018-11-20T08:26:49.047Z,67.60
2018-11-20T08:29:40.340Z,67.55
2018-11-20T08:32:26.236Z,67.53
2018-11-20T08:35:20.593Z,67.52
2018-11-20T08:38:12.653Z,67.49
2018-11-20T08:40:59.513Z,67.48
2018-11-20T08:43:47.827Z,67.46
2018-11-20T08:46:34.650Z,67.46
2018-11-20T08:49:32.374Z,67.46
2018-11-20T08:52:29.766Z,67.45
2018-11-20T08:55:16.625Z,67.43
2018-11-20T08:58:03.548Z,67.39
2018-11-20T09:01:00.833Z,67.21
2018-11-20T09:03:47.585Z,67.04
2018-11-20T09:06:41.612Z,66.87
2018-11-20T09:09:28.649Z,66.79
2018-11-20T09:12:23.088Z,66.71
2018-11-20T09:15:17.387Z,66.62
2018-11-20T09:18:08.719Z,66.61
2018-11-20T09:21:03.128Z,66.60
2018-11-20T09:23:47.636Z,66.55
2018-11-20T09:26:51.113Z,66.54
2018-11-20T09:29:42.157Z,66.43
2018-11-20T09:32:26.880Z,66.41
2018-11-20T09:35:18.530Z,66.28
2018-11-20T09:37:59.650Z,66.32
2018-11-20T09:41:04.287Z,66.38
2018-11-20T09:44:46.074Z,66.32
2018-11-20T09:47:47.010Z,66.32
2018-11-20T09:50:24.013Z,66.34
2018-11-20T09:53:25.643Z,66.30
2018-11-20T09:56:12.348Z,66.24
2018-11-20T09:59:00.713Z,66.26
2018-11-20T10:01:51.546Z,66.29
2018-11-20T10:04:38.432Z,66.28
2018-11-20T10:07:42.030Z,66.23
2018-11-20T10:10:28.872Z,66.25
2018-11-20T10:13:26.329Z,66.31
2018-11-20T10:16:14.600Z,66.21
2018-11-20T10:18:54.719Z,66.17
2018-11-20T10:21:41.642Z,66.14
2018-11-20T10:24:29.908Z,66.12
2018-11-20T10:27:18.351Z,66.00
2018-11-20T10:29:59.579Z,66.04
2018-11-20T10:32:46.378Z,65.96
2018-11-20T10:35:33.799Z,65.92
2018-11-20T10:38:21.554Z,65.83
2018-11-20T10:41:08.429Z,65.87
2018-11-20T10:44:02.400Z,65.86
2018-11-20T10:46:49.326Z,65.79
2018-11-20T10:49:34.397Z,65.92
2018-11-20T10:52:25.566Z,66.03
2018-11-20T10:55:13.448Z,66.02
2018-11-20T10:57:58.791Z,66.04
2018-11-20T11:00:45.682Z,66.08
2018-11-20T11:03:46.011Z,65.99
2018-11-20T11:06:35.336Z,66.07
2018-11-20T11:09:21.884Z,66.04
2018-11-20T11:12:00.056Z,65.99
2018-11-20T11:14:48.428Z,66.06
2018-11-20T11:17:39.777Z,66.07
2018-11-20T11:20:26.956Z,66.07
2018-11-20T11:23:18.153Z,65.99
2018-11-20T11:25:59.433Z,66.04
2018-11-20T11:29:06.268Z,66.10
2018-11-20T11:31:52.619Z,66.10
2018-11-20T11:34:43.735Z,66.17
2018-11-20T11:37:31.716Z,66.18
2018-11-20T11:40:22.726Z,66.14
2018-11-20T11:43:08.368Z,66.08
2018-11-20T11:46:04.302Z,66.07
2018-11-20T11:48:55.625Z,66.07
2018-11-20T11:51:38.436Z,66.07
2018-11-20T11:54:31.418Z,66.05
2018-11-20T11:57:38.198Z,66.03
2018-11-20T12:00:23.123Z,66.08
2018-11-20T12:03:11.482Z,66.14
2018-11-20T12:05:51.810Z,66.17
2018-11-20T12:08:39.789Z,66.17
2018-11-20T12:11:28.159Z,66.20
2018-11-20T12:14:22.532Z,66.22
2018-11-20T12:17:08.315Z,66.26
2018-11-20T12:20:08.900Z,66.30
2018-11-20T12:22:56.526Z,66.31
2018-11-20T12:25:56.757Z,66.29
